Погода Мариентальна неделю

Хардап, Намибия

25 июня-01 июля
  • 25июня
    Сегодня
    +9°
    +23°
    Ясно и безоблачно
    ВремяПогодаТемператураВлажностьДавлениеВетер, м/сВероятность осадков
    02:00Ясно и безоблачно+12°C46 %675 мм4.2 м/с2 %
    05:00Ясно и безоблачно+9°C57 %674 мм3.5 м/с2 %
    08:00Ясно и безоблачно+8°C63 %675 мм3.7 м/с2 %
    11:00Ясно и безоблачно+18°C39 %678 мм3.7 м/с2 %
    14:00Ясно и безоблачно+22°C27 %677 мм5.4 м/с2 %
    17:00Ясно и безоблачно+22°C26 %676 мм5.5 м/с2 %
    20:00Ясно и безоблачно+17°C35 %676 мм4.4 м/с2 %
    23:00Ясно и безоблачно+14°C46 %676 мм4.3 м/с2 %
  • 26июня
    Среда
    +10°
    +23°
    Пасмурно, сплошная облачность
    ВремяПогодаТемператураВлажностьДавлениеВетер, м/сВероятность осадков
    02:00Ясно и безоблачно+12°C52 %675 мм4.7 м/с2 %
    05:00Ясно и безоблачно+11°C57 %674 мм4.5 м/с2 %
    08:00Небольшая облачность+10°C55 %675 мм5.4 м/с2 %
    11:00Облачно с прояснениями+19°C34 %678 мм5.4 м/с2 %
    14:00Пасмурно, сплошная облачность+23°C31 %676 мм8.4 м/с2 %
    17:00Ясно и безоблачно+23°C28 %675 мм6.0 м/с2 %
    20:00Ясно и безоблачно+18°C37 %675 мм4.7 м/с2 %
    23:00Облачно с прояснениями+17°C41 %675 мм4.2 м/с2 %
  • 27июня
    Четверг
    +10°
    +24°
    Ясно и безоблачно
    ВремяПогодаТемператураВлажностьДавлениеВетер, м/сВероятность осадков
    02:00Ясно и безоблачно+15°C52 %675 мм5.9 м/с2 %
    05:00Практически безоблачно+13°C56 %674 мм4.6 м/с2 %
    08:00Ясно и безоблачно+11°C61 %674 мм5.5 м/с2 %
    11:00Ясно и безоблачно+19°C36 %677 мм7.7 м/с2 %
    14:00Ясно и безоблачно+23°C25 %675 мм8.1 м/с2 %
    17:00Практически безоблачно+23°C26 %675 мм7.3 м/с2 %
    20:00Ясно и безоблачно+18°C32 %674 мм5.5 м/с2 %
    23:00Ясно и безоблачно+16°C37 %674 мм7.7 м/с2 %
  • 28июня
    Пятница
    +11°
    +27°
    Ясно и безоблачно
    ВремяПогодаТемператураВлажностьДавлениеВетер, м/сВероятность осадков
    02:00Небольшая облачность+15°C39 %673 мм7.5 м/с2 %
    05:00Ясно и безоблачно+13°C42 %672 мм6.9 м/с2 %
    08:00Ясно и безоблачно+11°C49 %673 мм5.8 м/с2 %
    11:00Ясно и безоблачно+20°C34 %675 мм7.1 м/с2 %
    14:00Ясно и безоблачно+25°C24 %674 мм7.4 м/с2 %
    17:00Практически безоблачно+26°C21 %673 мм3.6 м/с2 %
    20:00Ясно и безоблачно+20°C27 %672 мм4.3 м/с2 %
    23:00Небольшая облачность+17°C31 %672 мм4.4 м/с2 %
  • 29июня
    Суббота
    +8°
    +28°
    Практически безоблачно
    ВремяПогодаТемператураВлажностьДавлениеВетер, м/сВероятность осадков
    02:00Небольшая облачность+15°C39 %672 мм4.5 м/с3 %
    05:00Ясно и безоблачно+13°C43 %670 мм5.3 м/с3 %
    08:00Ясно и безоблачно+12°C47 %671 мм5.5 м/с3 %
    11:00Ясно и безоблачно+22°C31 %674 мм6.7 м/с2 %
    14:00Практически безоблачно+26°C18 %673 мм4.9 м/с2 %
    17:00Ясно и безоблачно+27°C16 %672 мм2.4 м/с2 %
    20:00Ясно и безоблачно+20°C21 %671 мм3.1 м/с2 %
    23:00Ясно и безоблачно+16°C29 %670 мм3.7 м/с2 %
Мы используем cookies
Соглашаюсь